sensor_id;sensor_type;location;lat;lon;timestamp;P1;durP1;ratioP1;P2;durP2;ratioP2
1320;SDS011;653;51.480;11.992;2023-05-07T00:02:03;20.80;;;16.23;;
1320;SDS011;653;51.480;11.992;2023-05-07T00:04:30;20.40;;;15.70;;
1320;SDS011;653;51.480;11.992;2023-05-07T00:07:02;21.80;;;17.27;;
1320;SDS011;653;51.480;11.992;2023-05-07T00:09:29;20.47;;;15.63;;
1320;SDS011;653;51.480;11.992;2023-05-07T00:11:57;21.00;;;16.03;;
1320;SDS011;653;51.480;11.992;2023-05-07T00:14:23;19.83;;;15.40;;
1320;SDS011;653;51.480;11.992;2023-05-07T00:16:49;21.70;;;15.47;;
1320;SDS011;653;51.480;11.992;2023-05-07T00:19:16;21.00;;;14.20;;
1320;SDS011;653;51.480;11.992;2023-05-07T00:21:42;19.40;;;14.27;;
1320;SDS011;653;51.480;11.992;2023-05-07T00:24:08;18.60;;;13.97;;
1320;SDS011;653;51.480;11.992;2023-05-07T00:26:33;22.97;;;14.13;;
1320;SDS011;653;51.480;11.992;2023-05-07T00:29:01;16.47;;;13.77;;
1320;SDS011;653;51.480;11.992;2023-05-07T00:31:27;15.87;;;12.23;;
1320;SDS011;653;51.480;11.992;2023-05-07T00:33:54;17.67;;;13.97;;
1320;SDS011;653;51.480;11.992;2023-05-07T00:36:21;19.43;;;14.00;;
1320;SDS011;653;51.480;11.992;2023-05-07T00:38:46;19.27;;;13.83;;
1320;SDS011;653;51.480;11.992;2023-05-07T00:41:20;17.23;;;13.47;;
1320;SDS011;653;51.480;11.992;2023-05-07T00:43:46;17.20;;;13.53;;
1320;SDS011;653;51.480;11.992;2023-05-07T00:46:12;16.93;;;13.10;;
1320;SDS011;653;51.480;11.992;2023-05-07T00:48:39;15.13;;;12.20;;
1320;SDS011;653;51.480;11.992;2023-05-07T00:51:05;15.80;;;12.17;;
1320;SDS011;653;51.480;11.992;2023-05-07T00:53:33;16.63;;;12.17;;
1320;SDS011;653;51.480;11.992;2023-05-07T00:56:00;21.30;;;13.33;;
1320;SDS011;653;51.480;11.992;2023-05-07T00:58:27;14.40;;;12.30;;
1320;SDS011;653;51.480;11.992;2023-05-07T01:00:53;13.80;;;12.30;;
1320;SDS011;653;51.480;11.992;2023-05-07T01:03:18;16.87;;;14.03;;
1320;SDS011;653;51.480;11.992;2023-05-07T01:05:45;17.93;;;13.77;;
1320;SDS011;653;51.480;11.992;2023-05-07T01:08:11;15.10;;;13.10;;
1320;SDS011;653;51.480;11.992;2023-05-07T01:10:38;15.87;;;12.70;;
1320;SDS011;653;51.480;11.992;2023-05-07T01:13:08;15.43;;;12.93;;
1320;SDS011;653;51.480;11.992;2023-05-07T01:15:36;17.27;;;13.50;;
1320;SDS011;653;51.480;11.992;2023-05-07T01:18:08;15.13;;;12.50;;
1320;SDS011;653;51.480;11.992;2023-05-07T01:20:34;16.57;;;13.00;;
1320;SDS011;653;51.480;11.992;2023-05-07T01:23:02;15.87;;;14.17;;
1320;SDS011;653;51.480;11.992;2023-05-07T01:25:29;14.17;;;12.00;;
1320;SDS011;653;51.480;11.992;2023-05-07T01:27:59;15.60;;;12.83;;
1320;SDS011;653;51.480;11.992;2023-05-07T01:30:26;17.20;;;12.50;;
1320;SDS011;653;51.480;11.992;2023-05-07T01:33:14;14.03;;;11.93;;
1320;SDS011;653;51.480;11.992;2023-05-07T01:35:43;17.30;;;11.87;;
1320;SDS011;653;51.480;11.992;2023-05-07T01:38:10;14.83;;;12.73;;
1320;SDS011;653;51.480;11.992;2023-05-07T01:40:37;15.00;;;12.10;;
1320;SDS011;653;51.480;11.992;2023-05-07T01:43:03;15.70;;;12.17;;
1320;SDS011;653;51.480;11.992;2023-05-07T01:45:30;14.97;;;11.90;;
1320;SDS011;653;51.480;11.992;2023-05-07T01:47:57;15.30;;;12.63;;
1320;SDS011;653;51.480;11.992;2023-05-07T01:50:23;15.30;;;12.33;;
1320;SDS011;653;51.480;11.992;2023-05-07T01:52:51;14.80;;;12.07;;
1320;SDS011;653;51.480;11.992;2023-05-07T01:55:22;14.70;;;12.00;;
1320;SDS011;653;51.480;11.992;2023-05-07T01:57:48;12.77;;;10.63;;
1320;SDS011;653;51.480;11.992;2023-05-07T02:00:15;12.67;;;11.33;;
1320;SDS011;653;51.480;11.992;2023-05-07T02:02:44;16.67;;;12.40;;
1320;SDS011;653;51.480;11.992;2023-05-07T02:05:12;14.83;;;11.23;;
1320;SDS011;653;51.480;11.992;2023-05-07T02:07:38;13.77;;;11.00;;
1320;SDS011;653;51.480;11.992;2023-05-07T02:10:04;16.50;;;12.57;;
1320;SDS011;653;51.480;11.992;2023-05-07T02:12:31;15.03;;;12.20;;
1320;SDS011;653;51.480;11.992;2023-05-07T02:15:01;14.23;;;11.53;;
1320;SDS011;653;51.480;11.992;2023-05-07T02:17:26;15.47;;;12.10;;
1320;SDS011;653;51.480;11.992;2023-05-07T02:19:58;15.33;;;12.50;;
1320;SDS011;653;51.480;11.992;2023-05-07T02:22:23;13.10;;;11.70;;
1320;SDS011;653;51.480;11.992;2023-05-07T02:24:54;12.63;;;11.13;;
1320;SDS011;653;51.480;11.992;2023-05-07T02:27:20;14.93;;;11.00;;
1320;SDS011;653;51.480;11.992;2023-05-07T02:29:47;12.53;;;11.23;;
1320;SDS011;653;51.480;11.992;2023-05-07T02:32:12;18.00;;;12.70;;
1320;SDS011;653;51.480;11.992;2023-05-07T02:34:40;14.10;;;11.57;;
1320;SDS011;653;51.480;11.992;2023-05-07T02:37:06;12.83;;;11.50;;
1320;SDS011;653;51.480;11.992;2023-05-07T02:39:34;13.60;;;11.83;;
1320;SDS011;653;51.480;11.992;2023-05-07T02:42:02;12.37;;;11.07;;
1320;SDS011;653;51.480;11.992;2023-05-07T02:44:27;16.17;;;13.37;;
1320;SDS011;653;51.480;11.992;2023-05-07T02:46:57;14.57;;;12.40;;
1320;SDS011;653;51.480;11.992;2023-05-07T02:49:25;13.50;;;11.80;;
1320;SDS011;653;51.480;11.992;2023-05-07T02:51:52;14.93;;;12.73;;
1320;SDS011;653;51.480;11.992;2023-05-07T02:54:19;14.13;;;12.10;;
1320;SDS011;653;51.480;11.992;2023-05-07T02:56:44;15.80;;;13.10;;
1320;SDS011;653;51.480;11.992;2023-05-07T02:59:10;16.97;;;13.80;;
1320;SDS011;653;51.480;11.992;2023-05-07T03:01:37;13.63;;;12.03;;
1320;SDS011;653;51.480;11.992;2023-05-07T03:04:02;14.60;;;12.10;;
1320;SDS011;653;51.480;11.992;2023-05-07T03:06:28;14.10;;;12.30;;
1320;SDS011;653;51.480;11.992;2023-05-07T03:08:55;15.10;;;12.00;;
1320;SDS011;653;51.480;11.992;2023-05-07T03:11:22;14.17;;;12.67;;
1320;SDS011;653;51.480;11.992;2023-05-07T03:13:48;15.23;;;12.33;;
1320;SDS011;653;51.480;11.992;2023-05-07T03:16:15;16.10;;;14.47;;
1320;SDS011;653;51.480;11.992;2023-05-07T03:18:40;16.57;;;14.07;;
1320;SDS011;653;51.480;11.992;2023-05-07T03:21:07;17.60;;;14.17;;
1320;SDS011;653;51.480;11.992;2023-05-07T03:23:34;16.90;;;14.73;;
1320;SDS011;653;51.480;11.992;2023-05-07T03:26:03;17.87;;;15.53;;
1320;SDS011;653;51.480;11.992;2023-05-07T03:28:30;17.67;;;14.33;;
1320;SDS011;653;51.480;11.992;2023-05-07T03:30:56;18.33;;;16.23;;
1320;SDS011;653;51.480;11.992;2023-05-07T03:33:22;17.87;;;15.10;;
1320;SDS011;653;51.480;11.992;2023-05-07T03:35:48;19.20;;;15.13;;
1320;SDS011;653;51.480;11.992;2023-05-07T03:38:16;19.00;;;16.20;;
1320;SDS011;653;51.480;11.992;2023-05-07T03:40:41;17.03;;;14.43;;
1320;SDS011;653;51.480;11.992;2023-05-07T03:43:12;19.93;;;15.10;;
1320;SDS011;653;51.480;11.992;2023-05-07T03:45:37;20.43;;;16.93;;
1320;SDS011;653;51.480;11.992;2023-05-07T03:48:06;19.67;;;17.67;;
1320;SDS011;653;51.480;11.992;2023-05-07T03:50:32;21.00;;;18.80;;
1320;SDS011;653;51.480;11.992;2023-05-07T03:52:58;19.87;;;17.17;;
1320;SDS011;653;51.480;11.992;2023-05-07T03:55:26;21.00;;;17.97;;
1320;SDS011;653;51.480;11.992;2023-05-07T03:57:55;22.30;;;17.47;;
1320;SDS011;653;51.480;11.992;2023-05-07T04:00:24;20.90;;;17.10;;
1320;SDS011;653;51.480;11.992;2023-05-07T04:02:50;21.50;;;17.40;;
1320;SDS011;653;51.480;11.992;2023-05-07T04:05:24;19.97;;;17.10;;
1320;SDS011;653;51.480;11.992;2023-05-07T04:07:51;19.60;;;17.50;;
1320;SDS011;653;51.480;11.992;2023-05-07T04:10:21;18.63;;;15.73;;
1320;SDS011;653;51.480;11.992;2023-05-07T04:12:48;20.07;;;16.97;;
1320;SDS011;653;51.480;11.992;2023-05-07T04:15:14;18.47;;;16.33;;
1320;SDS011;653;51.480;11.992;2023-05-07T04:17:44;20.27;;;15.73;;
1320;SDS011;653;51.480;11.992;2023-05-07T04:20:16;21.90;;;17.23;;
1320;SDS011;653;51.480;11.992;2023-05-07T04:22:43;20.20;;;16.53;;
1320;SDS011;653;51.480;11.992;2023-05-07T04:25:10;21.23;;;17.40;;
1320;SDS011;653;51.480;11.992;2023-05-07T04:27:37;20.03;;;16.83;;
1320;SDS011;653;51.480;11.992;2023-05-07T04:30:04;22.77;;;17.53;;
1320;SDS011;653;51.480;11.992;2023-05-07T04:32:30;20.97;;;17.40;;
1320;SDS011;653;51.480;11.992;2023-05-07T04:34:58;22.00;;;18.73;;
1320;SDS011;653;51.480;11.992;2023-05-07T04:37:24;24.40;;;18.37;;
1320;SDS011;653;51.480;11.992;2023-05-07T04:39:51;24.50;;;19.33;;
1320;SDS011;653;51.480;11.992;2023-05-07T04:42:18;25.00;;;18.90;;
1320;SDS011;653;51.480;11.992;2023-05-07T04:44:44;22.97;;;18.40;;
1320;SDS011;653;51.480;11.992;2023-05-07T04:47:10;23.17;;;19.73;;
1320;SDS011;653;51.480;11.992;2023-05-07T04:49:41;24.80;;;19.47;;
1320;SDS011;653;51.480;11.992;2023-05-07T04:52:06;26.70;;;19.63;;
1320;SDS011;653;51.480;11.992;2023-05-07T04:54:32;23.77;;;19.17;;
1320;SDS011;653;51.480;11.992;2023-05-07T04:57:03;23.40;;;18.73;;
1320;SDS011;653;51.480;11.992;2023-05-07T04:59:30;22.17;;;19.00;;
1320;SDS011;653;51.480;11.992;2023-05-07T05:01:57;24.27;;;18.80;;
1320;SDS011;653;51.480;11.992;2023-05-07T05:04:22;23.63;;;19.90;;
1320;SDS011;653;51.480;11.992;2023-05-07T05:06:51;29.07;;;21.77;;
1320;SDS011;653;51.480;11.992;2023-05-07T05:09:18;23.60;;;20.30;;
1320;SDS011;653;51.480;11.992;2023-05-07T05:11:46;24.47;;;20.87;;
1320;SDS011;653;51.480;11.992;2023-05-07T05:14:13;23.33;;;19.40;;
1320;SDS011;653;51.480;11.992;2023-05-07T05:16:42;23.40;;;19.07;;
1320;SDS011;653;51.480;11.992;2023-05-07T05:19:08;26.07;;;19.10;;
1320;SDS011;653;51.480;11.992;2023-05-07T05:21:35;23.70;;;19.93;;
1320;SDS011;653;51.480;11.992;2023-05-07T05:24:00;25.10;;;19.70;;
1320;SDS011;653;51.480;11.992;2023-05-07T05:26:27;22.50;;;18.83;;
1320;SDS011;653;51.480;11.992;2023-05-07T05:28:55;22.90;;;19.20;;
1320;SDS011;653;51.480;11.992;2023-05-07T05:31:23;21.03;;;18.10;;
1320;SDS011;653;51.480;11.992;2023-05-07T05:33:50;21.60;;;17.37;;
1320;SDS011;653;51.480;11.992;2023-05-07T05:36:17;21.03;;;18.13;;
1320;SDS011;653;51.480;11.992;2023-05-07T05:38:42;24.40;;;19.10;;
1320;SDS011;653;51.480;11.992;2023-05-07T05:41:11;26.40;;;19.40;;
1320;SDS011;653;51.480;11.992;2023-05-07T05:43:38;20.97;;;18.77;;
1320;SDS011;653;51.480;11.992;2023-05-07T05:46:04;24.33;;;19.43;;
1320;SDS011;653;51.480;11.992;2023-05-07T05:48:43;22.63;;;18.63;;
1320;SDS011;653;51.480;11.992;2023-05-07T05:51:12;21.20;;;18.90;;
1320;SDS011;653;51.480;11.992;2023-05-07T05:53:39;21.40;;;18.10;;
1320;SDS011;653;51.480;11.992;2023-05-07T05:56:06;23.73;;;19.00;;
1320;SDS011;653;51.480;11.992;2023-05-07T05:58:34;19.37;;;17.37;;
1320;SDS011;653;51.480;11.992;2023-05-07T06:01:01;19.30;;;16.87;;
1320;SDS011;653;51.480;11.992;2023-05-07T06:03:29;17.60;;;15.83;;
1320;SDS011;653;51.480;11.992;2023-05-07T06:05:54;18.90;;;15.90;;
1320;SDS011;653;51.480;11.992;2023-05-07T06:08:23;17.70;;;15.60;;
1320;SDS011;653;51.480;11.992;2023-05-07T06:10:49;18.67;;;16.47;;
1320;SDS011;653;51.480;11.992;2023-05-07T06:13:17;19.37;;;17.27;;
1320;SDS011;653;51.480;11.992;2023-05-07T06:15:43;17.50;;;15.60;;
1320;SDS011;653;51.480;11.992;2023-05-07T06:18:10;17.30;;;15.50;;
1320;SDS011;653;51.480;11.992;2023-05-07T06:20:40;18.03;;;15.90;;
1320;SDS011;653;51.480;11.992;2023-05-07T06:23:07;17.03;;;14.40;;
1320;SDS011;653;51.480;11.992;2023-05-07T06:25:34;17.70;;;14.87;;
1320;SDS011;653;51.480;11.992;2023-05-07T06:28:00;17.03;;;15.07;;
1320;SDS011;653;51.480;11.992;2023-05-07T06:30:28;16.13;;;14.07;;
1320;SDS011;653;51.480;11.992;2023-05-07T06:32:57;15.47;;;13.90;;
1320;SDS011;653;51.480;11.992;2023-05-07T06:35:25;14.87;;;13.33;;
1320;SDS011;653;51.480;11.992;2023-05-07T06:37:51;14.93;;;13.13;;
1320;SDS011;653;51.480;11.992;2023-05-07T06:40:18;12.77;;;11.47;;
1320;SDS011;653;51.480;11.992;2023-05-07T06:42:44;15.00;;;11.93;;
1320;SDS011;653;51.480;11.992;2023-05-07T06:45:11;13.97;;;12.60;;
1320;SDS011;653;51.480;11.992;2023-05-07T06:47:38;14.60;;;12.07;;
1320;SDS011;653;51.480;11.992;2023-05-07T06:50:05;12.50;;;11.20;;
1320;SDS011;653;51.480;11.992;2023-05-07T06:52:33;13.20;;;11.20;;
1320;SDS011;653;51.480;11.992;2023-05-07T06:54:59;11.00;;;9.87;;
1320;SDS011;653;51.480;11.992;2023-05-07T06:57:25;13.47;;;10.83;;
1320;SDS011;653;51.480;11.992;2023-05-07T06:59:56;12.10;;;10.80;;
1320;SDS011;653;51.480;11.992;2023-05-07T07:02:23;13.90;;;10.30;;
1320;SDS011;653;51.480;11.992;2023-05-07T07:04:48;11.80;;;10.60;;
1320;SDS011;653;51.480;11.992;2023-05-07T07:07:15;9.67;;;8.77;;
1320;SDS011;653;51.480;11.992;2023-05-07T07:09:40;11.27;;;10.17;;
1320;SDS011;653;51.480;11.992;2023-05-07T07:12:13;12.20;;;9.73;;
1320;SDS011;653;51.480;11.992;2023-05-07T07:14:38;13.67;;;10.20;;
1320;SDS011;653;51.480;11.992;2023-05-07T07:17:04;11.80;;;10.60;;
1320;SDS011;653;51.480;11.992;2023-05-07T07:19:30;11.57;;;10.40;;
1320;SDS011;653;51.480;11.992;2023-05-07T07:21:58;13.00;;;11.70;;
1320;SDS011;653;51.480;11.992;2023-05-07T07:24:25;13.50;;;11.37;;
1320;SDS011;653;51.480;11.992;2023-05-07T07:26:50;13.20;;;11.63;;
1320;SDS011;653;51.480;11.992;2023-05-07T07:29:17;14.27;;;12.83;;
1320;SDS011;653;51.480;11.992;2023-05-07T07:31:45;15.23;;;12.87;;
1320;SDS011;653;51.480;11.992;2023-05-07T07:34:19;14.27;;;12.50;;
1320;SDS011;653;51.480;11.992;2023-05-07T07:36:44;14.37;;;12.87;;
1320;SDS011;653;51.480;11.992;2023-05-07T07:39:09;14.10;;;12.53;;
1320;SDS011;653;51.480;11.992;2023-05-07T07:41:36;15.07;;;13.30;;
1320;SDS011;653;51.480;11.992;2023-05-07T07:44:03;15.57;;;13.50;;
1320;SDS011;653;51.480;11.992;2023-05-07T07:46:33;16.20;;;14.50;;
1320;SDS011;653;51.480;11.992;2023-05-07T07:49:02;15.47;;;13.67;;
1320;SDS011;653;51.480;11.992;2023-05-07T07:51:29;16.13;;;13.67;;
1320;SDS011;653;51.480;11.992;2023-05-07T07:53:58;14.83;;;13.23;;
1320;SDS011;653;51.480;11.992;2023-05-07T07:56:25;16.13;;;13.80;;
1320;SDS011;653;51.480;11.992;2023-05-07T07:58:51;14.30;;;12.80;;
1320;SDS011;653;51.480;11.992;2023-05-07T08:01:21;17.30;;;14.37;;
1320;SDS011;653;51.480;11.992;2023-05-07T08:03:47;14.00;;;12.20;;
1320;SDS011;653;51.480;11.992;2023-05-07T08:06:18;13.27;;;11.87;;
1320;SDS011;653;51.480;11.992;2023-05-07T08:08:44;13.00;;;11.60;;
1320;SDS011;653;51.480;11.992;2023-05-07T08:11:10;10.70;;;9.70;;
1320;SDS011;653;51.480;11.992;2023-05-07T08:13:36;10.40;;;9.30;;
1320;SDS011;653;51.480;11.992;2023-05-07T08:16:03;11.67;;;10.07;;
1320;SDS011;653;51.480;11.992;2023-05-07T08:18:30;11.53;;;10.33;;
1320;SDS011;653;51.480;11.992;2023-05-07T08:20:56;11.03;;;9.93;;
1320;SDS011;653;51.480;11.992;2023-05-07T08:23:24;12.90;;;11.60;;
1320;SDS011;653;51.480;11.992;2023-05-07T08:25:50;12.03;;;10.93;;
1320;SDS011;653;51.480;11.992;2023-05-07T08:28:17;11.10;;;10.00;;
1320;SDS011;653;51.480;11.992;2023-05-07T08:30:44;10.80;;;9.63;;
1320;SDS011;653;51.480;11.992;2023-05-07T08:33:14;12.53;;;9.87;;
1320;SDS011;653;51.480;11.992;2023-05-07T08:35:48;11.93;;;10.73;;
1320;SDS011;653;51.480;11.992;2023-05-07T08:38:14;10.37;;;9.37;;
1320;SDS011;653;51.480;11.992;2023-05-07T08:40:40;10.27;;;9.27;;
1320;SDS011;653;51.480;11.992;2023-05-07T08:43:07;9.93;;;9.03;;
1320;SDS011;653;51.480;11.992;2023-05-07T08:45:36;10.57;;;9.57;;
1320;SDS011;653;51.480;11.992;2023-05-07T08:48:08;11.33;;;9.73;;
1320;SDS011;653;51.480;11.992;2023-05-07T08:50:41;10.17;;;9.10;;
1320;SDS011;653;51.480;11.992;2023-05-07T08:53:10;11.20;;;9.50;;
1320;SDS011;653;51.480;11.992;2023-05-07T08:55:35;10.23;;;9.13;;
1320;SDS011;653;51.480;11.992;2023-05-07T08:58:03;8.40;;;7.60;;
1320;SDS011;653;51.480;11.992;2023-05-07T09:00:30;8.40;;;7.60;;
1320;SDS011;653;51.480;11.992;2023-05-07T09:03:01;8.67;;;7.87;;
1320;SDS011;653;51.480;11.992;2023-05-07T09:05:28;9.03;;;8.23;;
1320;SDS011;653;51.480;11.992;2023-05-07T09:07:54;8.43;;;7.63;;
1320;SDS011;653;51.480;11.992;2023-05-07T09:10:32;8.70;;;7.87;;
1320;SDS011;653;51.480;11.992;2023-05-07T09:12:59;9.03;;;8.13;;
1320;SDS011;653;51.480;11.992;2023-05-07T09:15:36;9.67;;;8.77;;
1320;SDS011;653;51.480;11.992;2023-05-07T09:18:01;10.10;;;8.67;;
1320;SDS011;653;51.480;11.992;2023-05-07T09:20:29;10.40;;;9.40;;
1320;SDS011;653;51.480;11.992;2023-05-07T09:22:56;10.43;;;9.33;;
1320;SDS011;653;51.480;11.992;2023-05-07T09:25:29;10.10;;;9.10;;
1320;SDS011;653;51.480;11.992;2023-05-07T09:27:59;11.53;;;10.33;;
1320;SDS011;653;51.480;11.992;2023-05-07T09:30:32;10.43;;;9.43;;
1320;SDS011;653;51.480;11.992;2023-05-07T09:33:00;10.43;;;9.23;;
1320;SDS011;653;51.480;11.992;2023-05-07T09:35:28;10.40;;;9.33;;
1320;SDS011;653;51.480;11.992;2023-05-07T09:38:00;11.13;;;10.03;;
1320;SDS011;653;51.480;11.992;2023-05-07T09:40:29;12.50;;;11.20;;
1320;SDS011;653;51.480;11.992;2023-05-07T09:43:07;11.13;;;10.10;;
1320;SDS011;653;51.480;11.992;2023-05-07T09:45:41;11.73;;;10.53;;
1320;SDS011;653;51.480;11.992;2023-05-07T09:48:20;12.17;;;10.50;;
1320;SDS011;653;51.480;11.992;2023-05-07T09:50:48;12.63;;;11.37;;
1320;SDS011;653;51.480;11.992;2023-05-07T09:53:28;13.87;;;12.47;;
1320;SDS011;653;51.480;11.992;2023-05-07T09:55:56;14.80;;;12.80;;
1320;SDS011;653;51.480;11.992;2023-05-07T09:58:23;13.00;;;11.63;;
1320;SDS011;653;51.480;11.992;2023-05-07T10:00:58;14.27;;;12.77;;
1320;SDS011;653;51.480;11.992;2023-05-07T10:03:27;15.33;;;12.97;;
1320;SDS011;653;51.480;11.992;2023-05-07T10:05:55;13.47;;;12.03;;
1320;SDS011;653;51.480;11.992;2023-05-07T10:08:20;14.90;;;13.50;;
1320;SDS011;653;51.480;11.992;2023-05-07T10:10:52;17.40;;;13.07;;
1320;SDS011;653;51.480;11.992;2023-05-07T10:13:18;11.70;;;10.60;;
1320;SDS011;653;51.480;11.992;2023-05-07T10:15:44;13.47;;;11.10;;
1320;SDS011;653;51.480;11.992;2023-05-07T10:18:12;12.23;;;11.03;;
1320;SDS011;653;51.480;11.992;2023-05-07T10:20:38;13.27;;;11.97;;
1320;SDS011;653;51.480;11.992;2023-05-07T10:23:06;12.07;;;10.87;;
1320;SDS011;653;51.480;11.992;2023-05-07T10:25:35;12.70;;;11.50;;
1320;SDS011;653;51.480;11.992;2023-05-07T10:28:12;12.50;;;11.30;;
1320;SDS011;653;51.480;11.992;2023-05-07T10:33:52;15.37;;;12.13;;
1320;SDS011;653;51.480;11.992;2023-05-07T10:36:22;14.50;;;12.90;;
1320;SDS011;653;51.480;11.992;2023-05-07T10:38:50;14.47;;;13.03;;
1320;SDS011;653;51.480;11.992;2023-05-07T10:41:16;13.97;;;12.60;;
1320;SDS011;653;51.480;11.992;2023-05-07T10:43:46;15.03;;;13.53;;
1320;SDS011;653;51.480;11.992;2023-05-07T10:46:19;15.23;;;13.00;;
1320;SDS011;653;51.480;11.992;2023-05-07T10:51:34;15.27;;;13.77;;
1320;SDS011;653;51.480;11.992;2023-05-07T10:56:42;13.73;;;12.30;;
1320;SDS011;653;51.480;11.992;2023-05-07T11:02:03;14.77;;;13.33;;
1320;SDS011;653;51.480;11.992;2023-05-07T11:04:32;14.20;;;12.60;;
1320;SDS011;653;51.480;11.992;2023-05-07T11:12:46;13.37;;;11.97;;
1320;SDS011;653;51.480;11.992;2023-05-07T11:15:14;13.77;;;12.47;;
1320;SDS011;653;51.480;11.992;2023-05-07T11:17:58;11.40;;;10.30;;
1320;SDS011;653;51.480;11.992;2023-05-07T11:26:10;12.67;;;11.47;;
1320;SDS011;653;51.480;11.992;2023-05-07T11:28:39;11.50;;;10.10;;
1320;SDS011;653;51.480;11.992;2023-05-07T11:31:05;12.47;;;11.27;;
1320;SDS011;653;51.480;11.992;2023-05-07T11:33:35;11.93;;;10.70;;
1320;SDS011;653;51.480;11.992;2023-05-07T11:36:04;12.57;;;11.47;;
1320;SDS011;653;51.480;11.992;2023-05-07T11:38:35;11.80;;;10.60;;
1320;SDS011;653;51.480;11.992;2023-05-07T11:41:02;12.30;;;11.10;;
1320;SDS011;653;51.480;11.992;2023-05-07T11:43:33;11.33;;;10.23;;
1320;SDS011;653;51.480;11.992;2023-05-07T11:46:09;12.63;;;11.33;;
1320;SDS011;653;51.480;11.992;2023-05-07T11:48:37;12.57;;;11.37;;
1320;SDS011;653;51.480;11.992;2023-05-07T11:51:07;12.50;;;11.17;;
1320;SDS011;653;51.480;11.992;2023-05-07T11:53:39;14.03;;;12.73;;
1320;SDS011;653;51.480;11.992;2023-05-07T11:56:12;13.20;;;12.10;;
1320;SDS011;653;51.480;11.992;2023-05-07T11:58:41;14.57;;;13.17;;
1320;SDS011;653;51.480;11.992;2023-05-07T12:01:12;13.63;;;12.30;;
1320;SDS011;653;51.480;11.992;2023-05-07T12:03:42;12.57;;;11.30;;
1320;SDS011;653;51.480;11.992;2023-05-07T12:06:14;12.53;;;11.37;;
1320;SDS011;653;51.480;11.992;2023-05-07T12:08:42;12.53;;;11.20;;
1320;SDS011;653;51.480;11.992;2023-05-07T12:11:09;10.93;;;9.60;;
1320;SDS011;653;51.480;11.992;2023-05-07T12:13:36;11.03;;;9.93;;
1320;SDS011;653;51.480;11.992;2023-05-07T12:16:04;11.73;;;10.23;;
1320;SDS011;653;51.480;11.992;2023-05-07T12:18:31;10.83;;;9.83;;
1320;SDS011;653;51.480;11.992;2023-05-07T12:20:57;9.70;;;8.70;;
1320;SDS011;653;51.480;11.992;2023-05-07T12:23:24;8.60;;;7.80;;
1320;SDS011;653;51.480;11.992;2023-05-07T12:25:51;8.03;;;7.30;;
1320;SDS011;653;51.480;11.992;2023-05-07T12:28:21;9.00;;;8.20;;
1320;SDS011;653;51.480;11.992;2023-05-07T12:30:48;7.37;;;6.60;;
1320;SDS011;653;51.480;11.992;2023-05-07T12:33:23;9.63;;;8.80;;
1320;SDS011;653;51.480;11.992;2023-05-07T12:35:53;9.20;;;7.70;;
1320;SDS011;653;51.480;11.992;2023-05-07T12:38:22;8.00;;;7.30;;
1320;SDS011;653;51.480;11.992;2023-05-07T12:40:53;10.53;;;8.97;;
1320;SDS011;653;51.480;11.992;2023-05-07T12:43:29;13.10;;;9.80;;
1320;SDS011;653;51.480;11.992;2023-05-07T12:45:57;9.83;;;8.83;;
1320;SDS011;653;51.480;11.992;2023-05-07T12:48:33;10.40;;;9.27;;
1320;SDS011;653;51.480;11.992;2023-05-07T12:51:02;14.50;;;10.43;;
1320;SDS011;653;51.480;11.992;2023-05-07T12:53:29;13.60;;;11.87;;
1320;SDS011;653;51.480;11.992;2023-05-07T12:55:57;11.97;;;10.83;;
1320;SDS011;653;51.480;11.992;2023-05-07T12:58:26;14.10;;;11.23;;
1320;SDS011;653;51.480;11.992;2023-05-07T13:00:55;12.60;;;11.30;;
1320;SDS011;653;51.480;11.992;2023-05-07T13:06:00;14.00;;;11.67;;
1320;SDS011;653;51.480;11.992;2023-05-07T13:08:40;11.20;;;10.17;;
1320;SDS011;653;51.480;11.992;2023-05-07T13:11:09;11.03;;;9.90;;
1320;SDS011;653;51.480;11.992;2023-05-07T13:13:36;11.43;;;10.33;;
1320;SDS011;653;51.480;11.992;2023-05-07T13:16:06;12.47;;;11.33;;
1320;SDS011;653;51.480;11.992;2023-05-07T13:18:34;10.77;;;9.07;;
1320;SDS011;653;51.480;11.992;2023-05-07T13:21:02;12.13;;;10.93;;
1320;SDS011;653;51.480;11.992;2023-05-07T13:23:31;10.33;;;9.33;;
1320;SDS011;653;51.480;11.992;2023-05-07T13:26:01;10.23;;;9.20;;
1320;SDS011;653;51.480;11.992;2023-05-07T13:28:27;9.33;;;8.43;;
1320;SDS011;653;51.480;11.992;2023-05-07T13:30:56;9.57;;;8.60;;
1320;SDS011;653;51.480;11.992;2023-05-07T13:33:22;9.20;;;8.20;;
1320;SDS011;653;51.480;11.992;2023-05-07T13:35:50;7.93;;;7.13;;
1320;SDS011;653;51.480;11.992;2023-05-07T13:38:16;7.80;;;7.10;;
1320;SDS011;653;51.480;11.992;2023-05-07T13:40:45;8.43;;;7.07;;
1320;SDS011;653;51.480;11.992;2023-05-07T13:43:10;7.23;;;6.57;;
1320;SDS011;653;51.480;11.992;2023-05-07T13:45:35;6.90;;;6.30;;
1320;SDS011;653;51.480;11.992;2023-05-07T13:48:02;6.70;;;6.10;;
1320;SDS011;653;51.480;11.992;2023-05-07T13:50:32;6.47;;;5.33;;
1320;SDS011;653;51.480;11.992;2023-05-07T13:53:03;9.57;;;6.97;;
1320;SDS011;653;51.480;11.992;2023-05-07T13:55:31;9.30;;;6.00;;
1320;SDS011;653;51.480;11.992;2023-05-07T13:57:58;6.97;;;6.27;;
1320;SDS011;653;51.480;11.992;2023-05-07T14:00:26;6.70;;;6.10;;
1320;SDS011;653;51.480;11.992;2023-05-07T14:02:55;6.60;;;5.93;;
1320;SDS011;653;51.480;11.992;2023-05-07T14:05:21;6.63;;;6.13;;
1320;SDS011;653;51.480;11.992;2023-05-07T14:07:59;7.03;;;6.33;;
1320;SDS011;653;51.480;11.992;2023-05-07T14:10:25;6.73;;;6.00;;
1320;SDS011;653;51.480;11.992;2023-05-07T14:12:56;5.40;;;5.00;;
1320;SDS011;653;51.480;11.992;2023-05-07T14:15:22;5.83;;;5.33;;
1320;SDS011;653;51.480;11.992;2023-05-07T14:17:48;5.40;;;4.97;;
1320;SDS011;653;51.480;11.992;2023-05-07T14:20:18;6.57;;;5.97;;
1320;SDS011;653;51.480;11.992;2023-05-07T14:22:45;8.70;;;6.97;;
1320;SDS011;653;51.480;11.992;2023-05-07T14:25:12;6.87;;;6.13;;
1320;SDS011;653;51.480;11.992;2023-05-07T14:27:38;6.50;;;5.90;;
1320;SDS011;653;51.480;11.992;2023-05-07T14:30:04;7.50;;;6.70;;
1320;SDS011;653;51.480;11.992;2023-05-07T14:32:35;6.90;;;6.20;;
1320;SDS011;653;51.480;11.992;2023-05-07T14:35:06;7.27;;;6.50;;
1320;SDS011;653;51.480;11.992;2023-05-07T14:37:34;7.17;;;6.10;;
1320;SDS011;653;51.480;11.992;2023-05-07T14:40:01;7.67;;;6.40;;
1320;SDS011;653;51.480;11.992;2023-05-07T14:42:29;7.17;;;6.47;;
1320;SDS011;653;51.480;11.992;2023-05-07T14:44:55;7.47;;;6.83;;
1320;SDS011;653;51.480;11.992;2023-05-07T14:47:21;6.80;;;5.83;;
1320;SDS011;653;51.480;11.992;2023-05-07T14:49:47;6.03;;;5.47;;
1320;SDS011;653;51.480;11.992;2023-05-07T14:52:14;5.93;;;5.40;;
1320;SDS011;653;51.480;11.992;2023-05-07T14:54:40;5.50;;;5.00;;
1320;SDS011;653;51.480;11.992;2023-05-07T14:57:05;6.00;;;5.40;;
1320;SDS011;653;51.480;11.992;2023-05-07T14:59:37;4.40;;;4.00;;
1320;SDS011;653;51.480;11.992;2023-05-07T15:02:03;5.53;;;4.93;;
1320;SDS011;653;51.480;11.992;2023-05-07T15:04:35;5.47;;;5.07;;
1320;SDS011;653;51.480;11.992;2023-05-07T15:07:01;5.40;;;4.90;;
1320;SDS011;653;51.480;11.992;2023-05-07T15:09:28;5.17;;;4.67;;
1320;SDS011;653;51.480;11.992;2023-05-07T15:11:54;5.10;;;4.70;;
1320;SDS011;653;51.480;11.992;2023-05-07T15:14:22;5.37;;;4.73;;
1320;SDS011;653;51.480;11.992;2023-05-07T15:16:48;6.30;;;5.20;;
1320;SDS011;653;51.480;11.992;2023-05-07T15:19:14;5.30;;;4.80;;
1320;SDS011;653;51.480;11.992;2023-05-07T15:21:43;5.07;;;4.67;;
1320;SDS011;653;51.480;11.992;2023-05-07T15:24:11;5.47;;;4.90;;